Time;durP1;ratioP1;P1;durP2;ratioP2;P2;SDS_P1;SDS_P2;PMS_P1;PMS_P2;Temp;Humidity;BMP_temperature;BMP_pressure;BME280_temperature;BME280_humidity;BME280_pressure;Samples;Min_cycle;Max_cycle;Signal;HPM_P1;HPM_P2
2021/11/03 00:00:11;;;;;;;3.70;2.20;;;12.60;89.10;;;;;;5013097;28;20121;-74
2021/11/03 00:02:36;;;;;;;7.13;2.40;;;12.60;88.70;;;;;;5012535;28;20025;-74
2021/11/03 00:05:03;;;;;;;5.53;2.25;;;12.50;88.80;;;;;;5012650;28;20522;-74
2021/11/03 00:07:30;;;;;;;7.13;2.10;;;12.50;89.10;;;;;;5012599;28;20113;-74
2021/11/03 00:09:59;;;;;;;5.07;2.17;;;12.50;89.20;;;;;;5011496;28;20470;-74
2021/11/03 00:12:26;;;;;;;4.93;2.50;;;12.50;89.30;;;;;;5011686;28;20057;-74
2021/11/03 00:14:52;;;;;;;3.83;1.80;;;12.50;89.50;;;;;;5012880;28;20030;-74
2021/11/03 00:17:17;;;;;;;4.85;2.20;;;12.50;89.40;;;;;;5012857;28;20029;-74
2021/11/03 00:19:43;;;;;;;6.35;2.40;;;12.50;89.40;;;;;;5012891;28;20033;-74
2021/11/03 00:22:09;;;;;;;5.57;2.53;;;12.50;89.50;;;;;;5012786;28;20026;-74
2021/11/03 00:24:35;;;;;;;8.80;2.97;;;12.50;89.80;;;;;;5012769;28;20034;-75
2021/11/03 00:27:02;;;;;;;2.55;1.88;;;12.50;90.00;;;;;;5012592;28;20490;-74
2021/11/03 00:29:28;;;;;;;4.15;2.47;;;12.40;90.10;;;;;;5013321;28;20037;-74
2021/11/03 00:31:53;;;;;;;4.43;2.90;;;12.50;90.20;;;;;;5016101;28;20038;-73
2021/11/03 00:34:19;;;;;;;4.35;2.38;;;12.40;90.20;;;;;;5016112;28;20034;-74
2021/11/03 00:36:45;;;;;;;3.75;2.55;;;12.40;90.30;;;;;;5015984;28;20029;-75
2021/11/03 00:39:10;;;;;;;12.32;2.80;;;12.50;90.30;;;;;;5015812;28;20030;-74
2021/11/03 00:41:36;;;;;;;6.63;2.75;;;12.50;90.40;;;;;;5015721;28;20485;-74
2021/11/03 00:44:03;;;;;;;4.80;2.47;;;12.50;90.40;;;;;;5015966;28;20029;-73
2021/11/03 00:46:29;;;;;;;9.05;2.67;;;12.40;90.40;;;;;;5015758;28;20116;-73
2021/11/03 00:48:54;;;;;;;4.93;3.30;;;12.40;90.40;;;;;;5015798;28;20462;-74
2021/11/03 00:51:20;;;;;;;7.75;2.90;;;12.50;90.40;;;;;;5015428;28;20073;-75
2021/11/03 00:53:46;;;;;;;8.23;3.13;;;12.40;90.30;;;;;;5014398;28;20030;-74
2021/11/03 00:56:12;;;;;;;8.07;3.53;;;12.40;90.30;;;;;;5015590;28;20030;-74
2021/11/03 00:58:37;;;;;;;7.25;3.17;;;12.50;90.30;;;;;;5015217;28;20474;-74
2021/11/03 01:01:03;;;;;;;5.97;3.33;;;12.50;90.40;;;;;;5015380;28;20037;-74
2021/11/03 01:03:29;;;;;;;4.40;2.95;;;12.50;90.30;;;;;;5015633;28;20398;-74
2021/11/03 01:05:55;;;;;;;7.68;3.10;;;12.50;90.40;;;;;;5015236;28;20054;-74
2021/11/03 01:08:21;;;;;;;7.10;2.75;;;12.50;90.30;;;;;;5015071;28;20030;-73
2021/11/03 01:10:50;;;;;;;6.93;2.85;;;12.40;90.20;;;;;;5015434;28;20028;-75
2021/11/03 01:13:18;;;;;;;6.45;2.90;;;12.40;90.10;;;;;;5015358;28;20493;-74
2021/11/03 01:15:45;;;;;;;5.72;2.70;;;12.40;90.10;;;;;;5015040;28;20386;-74
2021/11/03 01:18:11;;;;;;;5.88;2.97;;;12.40;90.00;;;;;;5015414;28;20025;-74
2021/11/03 01:20:37;;;;;;;5.60;2.72;;;12.40;90.00;;;;;;5015426;28;20029;-75
2021/11/03 01:23:05;;;;;;;5.18;2.70;;;12.30;90.00;;;;;;5014911;28;20054;-74
2021/11/03 01:25:30;;;;;;;7.50;2.40;;;12.30;89.90;;;;;;5015059;28;20493;-73
2021/11/03 01:27:56;;;;;;;6.72;2.53;;;12.30;90.00;;;;;;5015035;28;20030;-74
2021/11/03 01:30:23;;;;;;;7.22;2.67;;;12.30;90.00;;;;;;5013828;28;20080;-75
2021/11/03 01:32:50;;;;;;;9.38;2.78;;;12.20;90.00;;;;;;5015149;28;20053;-74
2021/11/03 01:35:17;;;;;;;6.93;2.88;;;12.30;90.30;;;;;;5014623;28;20387;-74
2021/11/03 01:37:43;;;;;;;14.57;2.80;;;12.20;90.40;;;;;;5014688;28;20022;-74
2021/11/03 01:40:11;;;;;;;8.13;2.97;;;12.30;92.20;;;;;;5014732;28;20025;-74
2021/11/03 01:42:38;;;;;;;5.68;2.30;;;12.30;91.80;;;;;;5014642;28;20033;-75
2021/11/03 01:45:07;;;;;;;7.32;2.50;;;12.20;90.40;;;;;;5014574;28;20018;-74
2021/11/03 01:47:42;;;;;;;6.45;2.63;;;12.20;90.30;;;;;;5014456;28;20406;-74
2021/11/03 01:50:12;;;;;;;10.05;2.72;;;12.20;90.40;;;;;;5014654;28;20079;-75
2021/11/03 01:52:41;;;;;;;9.50;2.97;;;12.30;90.70;;;;;;5014768;28;20540;-75
2021/11/03 01:55:10;;;;;;;6.75;2.83;;;12.30;90.70;;;;;;5014717;28;20026;-74
2021/11/03 01:57:45;;;;;;;6.20;2.90;;;12.30;92.70;;;;;;5013376;28;20034;-75
2021/11/03 02:00:15;;;;;;;6.90;2.95;;;12.20;91.00;;;;;;5011804;28;20026;-75
2021/11/03 02:02:43;;;;;;;6.28;3.08;;;12.30;91.10;;;;;;5011706;28;20192;-74
2021/11/03 02:05:10;;;;;;;6.70;3.28;;;12.20;91.30;;;;;;5013026;28;20050;-74
2021/11/03 02:07:38;;;;;;;8.15;3.35;;;12.20;91.50;;;;;;5014199;28;20060;-74
2021/11/03 02:10:05;;;;;;;7.18;2.60;;;12.30;92.10;;;;;;5014061;28;20363;-74
2021/11/03 02:12:31;;;;;;;6.07;2.92;;;12.20;91.50;;;;;;5014234;28;20516;-74
2021/11/03 02:14:57;;;;;;;8.57;2.53;;;12.20;91.70;;;;;;5013840;28;20037;-74
2021/11/03 02:17:24;;;;;;;6.45;2.72;;;12.30;91.70;;;;;;5013895;28;20497;-75
2021/11/03 02:19:53;;;;;;;5.97;2.42;;;12.30;91.50;;;;;;5014028;28;20109;-74
2021/11/03 02:22:31;;;;;;;7.07;2.92;;;12.30;91.40;;;;;;5013775;28;20128;-74
2021/11/03 02:25:08;;;;;;;7.97;2.58;;;12.20;91.00;;;;;;5013672;28;20026;-74
2021/11/03 02:27:38;;;;;;;5.63;2.70;;;12.20;90.70;;;;;;5012080;28;20500;-74
2021/11/03 02:30:06;;;;;;;4.00;2.20;;;12.10;90.10;;;;;;5013913;28;20438;-74
2021/11/03 02:32:34;;;;;;;9.05;2.70;;;12.10;90.10;;;;;;5013939;28;20026;-74
2021/11/03 02:35:00;;;;;;;7.97;2.40;;;12.10;90.30;;;;;;5013457;28;20026;-74
2021/11/03 02:37:28;;;;;;;4.68;2.40;;;12.00;90.10;;;;;;5013200;28;20084;-74
2021/11/03 02:39:57;;;;;;;7.43;2.72;;;12.00;90.20;;;;;;5013754;28;20080;-75
2021/11/03 02:42:24;;;;;;;5.70;2.50;;;;;;;;;;5013796;28;20544;-73
2021/11/03 02:44:51;;;;;;;9.68;2.60;;;;;;;;;;5013390;28;20052;-73
2021/11/03 02:47:17;;;;;;;4.90;2.58;;;;;;;;;;5013158;28;20113;-73
2021/11/03 02:49:43;;;;;;;10.52;2.92;;;;;;;;;;5013494;28;20022;-72
2021/11/03 02:52:18;;;;;;;4.60;2.63;;;;;;;;;;5012706;28;20391;-74
2021/11/03 02:54:44;;;;;;;6.72;2.97;;;;;;;;;;5013533;28;20022;-73
2021/11/03 02:57:10;;;;;;;9.15;2.83;;;;;;;;;;5013431;28;20030;-72
2021/11/03 02:59:36;;;;;;;9.73;2.80;;;;;;;;;;5011558;28;20022;-73
2021/11/03 03:02:04;;;;;;;7.13;2.60;;;;;;;;;;5013396;28;20497;-73
2021/11/03 03:04:36;;;;;;;6.35;2.63;;;;;;;;;;5013062;28;20185;-73
2021/11/03 03:07:02;;;;;;;8.57;2.60;;;;;;;;;;5013452;28;20049;-75
2021/11/03 03:09:28;;;;;;;6.85;2.67;;;;;;;;;;5013171;28;20065;-76
2021/11/03 03:11:56;;;;;;;5.57;2.50;;;;;;;;;;5013387;28;20406;-76
2021/11/03 03:14:24;;;;;;;6.20;2.60;;;;;;;;;;5013158;28;20471;-76
2021/11/03 03:16:50;;;;;;;5.38;2.38;;;;;;;;;;5013080;28;20041;-72
2021/11/03 03:19:16;;;;;;;9.25;2.80;;;;;;;;;;5013087;28;20030;-71
2021/11/03 03:21:42;;;;;;;10.30;2.90;;;;;;;;;;5013246;28;20101;-73
2021/11/03 03:24:09;;;;;;;6.13;2.95;;;;;;;;;;5013274;28;20022;-73
2021/11/03 03:26:35;;;;;;;9.07;2.75;;;;;;;;;;5013299;28;20030;-72
2021/11/03 03:29:02;;;;;;;7.25;2.88;;;;;;;;;;5013066;28;20030;-73
2021/11/03 03:31:28;;;;;;;9.75;2.85;;;;;;;;;;5013227;28;20478;-74
2021/11/03 03:33:55;;;;;;;10.57;2.70;;;;;;;;;;5012915;28;20030;-72
2021/11/03 03:36:22;;;;;;;8.85;2.30;;;;;;;;;;5013196;28;20030;-73
2021/11/03 03:38:48;;;;;;;8.00;2.53;;;;;;;;;;5013034;28;20022;-73
2021/11/03 03:41:15;;;;;;;7.07;2.33;;;;;;;;;;5013067;28;20113;-73
2021/11/03 03:43:41;;;;;;;12.23;2.97;;;;;;;;;;5012854;28;20034;-73
2021/11/03 03:46:08;;;;;;;6.38;2.42;;;;;;;;;;5012061;28;20399;-73
2021/11/03 03:48:34;;;;;;;10.48;2.80;;;;;;;;;;5012946;28;20390;-72
2021/11/03 03:51:00;;;;;;;7.97;2.63;;;;;;;;;;5013144;28;20084;-76
2021/11/03 03:53:26;;;;;;;6.53;2.47;;;;;;;;;;5012837;28;20374;-73
2021/11/03 03:55:52;;;;;;;9.30;2.70;;;;;;;;;;5012890;28;20022;-76
2021/11/03 03:58:20;;;;;;;7.50;2.40;;;;;;;;;;5012775;28;20486;-74
2021/11/03 04:00:47;;;;;;;11.85;2.80;;;;;;;;;;5013315;28;20037;-75
2021/11/03 04:03:13;;;;;;;6.47;2.15;;;;;;;;;;5013286;28;20041;-75
2021/11/03 04:05:39;;;;;;;7.18;2.42;;;;;;;;;;5015513;28;20081;-73
2021/11/03 04:08:05;;;;;;;6.90;2.22;;;;;;;;;;5016339;28;20066;-70
2021/11/03 04:10:31;;;;;;;13.45;2.97;;;;;;;;;;5016581;28;20033;-70
2021/11/03 04:12:57;;;;;;;7.60;2.17;;;;;;;;;;5016548;28;20053;-70
2021/11/03 04:15:23;;;;;;;16.02;2.30;;;;;;;;;;5016364;28;20037;-72
2021/11/03 04:17:49;;;;;;;6.97;2.25;;;;;;;;;;5016000;28;20026;-73
2021/11/03 04:20:16;;;;;;;8.57;2.30;;;;;;;;;;5016285;28;20101;-72
2021/11/03 04:22:42;;;;;;;13.02;2.13;;;;;;;;;;5016245;28;20109;-73
2021/11/03 04:25:09;;;;;;;14.13;2.40;;;;;;;;;;5016365;28;20390;-72
2021/11/03 04:27:35;;;;;;;8.25;2.28;;;;;;;;;;5016216;28;20042;-74
2021/11/03 04:30:01;;;;;;;10.23;2.22;;;;;;;;;;5016081;28;20060;-72
2021/11/03 04:32:27;;;;;;;10.95;2.83;;;;;;;;;;5016134;28;20368;-74
2021/11/03 04:34:53;;;;;;;11.35;1.90;;;;;;;;;;5016055;28;20068;-74
2021/11/03 04:37:19;;;;;;;10.05;2.35;;;;;;;;;;5015897;28;20057;-74
2021/11/03 04:39:45;;;;;;;12.52;2.00;;;;;;;;;;5016161;28;20026;-74
2021/11/03 04:42:11;;;;;;;10.90;2.47;;;;;;;;;;5015491;28;20026;-73
2021/11/03 04:44:37;;;;;;;8.00;1.83;;;;;;;;;;5015693;28;20026;-74
2021/11/03 04:47:04;;;;;;;19.23;2.20;;;;;;;;;;5015748;28;20042;-74
2021/11/03 04:49:30;;;;;;;9.75;2.10;;;;;;;;;;5015838;28;20018;-73
2021/11/03 04:51:56;;;;;;;12.75;3.22;;;;;;;;;;5015721;28;20549;-74
2021/11/03 04:54:22;;;;;;;14.65;2.40;;;;;;;;;;5015559;28;20061;-75
2021/11/03 04:56:51;;;;;;;8.55;2.20;;;;;;;;;;5015594;28;20061;-74
2021/11/03 04:59:18;;;;;;;15.07;3.33;;;;;;;;;;5016109;28;20026;-73
2021/11/03 05:01:44;;;;;;;7.55;1.80;;;;;;;;;;5015410;28;20025;-74
2021/11/03 05:04:10;;;;;;;11.70;2.45;;;;;;;;;;5015214;28;20049;-75
2021/11/03 05:06:37;;;;;;;14.93;3.03;;;;;;;;;;5015432;28;20038;-75
2021/11/03 05:09:05;;;;;;;7.68;2.08;;;;;;;;;;5015343;28;20072;-75
2021/11/03 05:11:31;;;;;;;13.40;2.45;;;;;;;;;;5015111;28;20022;-73
2021/11/03 05:13:58;;;;;;;12.25;1.95;;;;;;;;;;5015242;28;20030;-72
2021/11/03 05:16:25;;;;;;;10.30;2.20;;;;;;;;;;5014791;28;20029;-71
2021/11/03 05:18:51;;;;;;;8.50;2.10;;;;;;;;;;5015064;28;20386;-74
2021/11/03 05:21:17;;;;;;;12.88;2.63;;;11.90;99.90;;;;;;5015370;28;20022;-73
2021/11/03 05:23:43;;;;;;;8.73;2.65;;;11.90;98.00;;;;;;5015202;28;20029;-74
2021/11/03 05:26:12;;;;;;;10.77;2.88;;;11.90;96.90;;;;;;5014964;28;20034;-74
2021/11/03 05:28:39;;;;;;;13.27;3.65;;;11.80;91.30;;;;;;5014956;28;20101;-72
2021/11/03 05:31:05;;;;;;;5.78;2.22;;;11.80;90.60;;;;;;5014891;28;20014;-74
2021/11/03 05:33:31;;;;;;;7.07;2.20;;;11.80;90.50;;;;;;5014504;28;20022;-74
2021/11/03 05:35:57;;;;;;;8.35;2.60;;;11.80;90.50;;;;;;5015043;28;20026;-74
2021/11/03 05:38:22;;;;;;;13.57;2.83;;;11.90;93.50;;;;;;5014986;28;20033;-74
2021/11/03 05:40:48;;;;;;;6.75;2.63;;;11.70;90.50;;;;;;5014603;28;20093;-74
2021/11/03 05:43:14;;;;;;;6.43;2.42;;;11.80;93.20;;;;;;5014703;28;20363;-73
2021/11/03 05:45:39;;;;;;;7.07;2.78;;;11.80;92.10;;;;;;5014643;28;20049;-74
2021/11/03 05:48:05;;;;;;;13.52;2.67;;;11.80;92.90;;;;;;5014667;28;20026;-74
2021/11/03 05:50:34;;;;;;;7.30;2.50;;;;;;;;;;5014451;28;20478;-71
2021/11/03 05:53:00;;;;;;;9.02;2.58;;;11.80;99.90;;;;;;5014589;28;20033;-71
2021/11/03 05:55:26;;;;;;;11.82;2.58;;;11.80;97.50;;;;;;5014622;28;20363;-73
2021/11/03 05:57:52;;;;;;;12.35;2.83;;;11.80;97.50;;;;;;5014856;28;20037;-75
2021/11/03 06:00:30;;;;;;;9.63;2.95;;;11.80;97.80;;;;;;5014397;28;20533;-73
2021/11/03 06:02:56;;;;;;;14.15;3.00;;;11.80;98.70;;;;;;5014567;28;20022;-75
2021/11/03 06:05:22;;;;;;;10.73;3.22;;;11.80;99.90;;;;;;5014097;28;20049;-74
2021/11/03 06:07:54;;;;;;;5.50;2.15;;;11.80;97.20;;;;;;5013868;28;20479;-74
2021/11/03 06:10:27;;;;;;;8.02;2.50;;;11.80;96.50;;;;;;5014141;28;20030;-74
2021/11/03 06:12:53;;;;;;;11.50;2.67;;;11.80;96.30;;;;;;5014117;28;20057;-75
2021/11/03 06:15:22;;;;;;;22.30;3.72;;;11.80;96.50;;;;;;5014273;28;20057;-74
2021/11/03 06:17:49;;;;;;;10.45;2.83;;;11.80;96.40;;;;;;5014300;28;20382;-75
2021/11/03 06:20:15;;;;;;;7.85;2.45;;;11.80;96.30;;;;;;5014063;28;20040;-74
2021/11/03 06:22:41;;;;;;;12.60;3.08;;;11.80;96.50;;;;;;5013881;28;20021;-74
2021/11/03 06:25:07;;;;;;;14.57;3.28;;;11.80;96.40;;;;;;5012548;28;20399;-74
2021/11/03 06:27:32;;;;;;;11.52;2.90;;;11.80;96.30;;;;;;5012989;28;20049;-73
2021/11/03 06:29:58;;;;;;;10.80;3.20;;;11.80;96.30;;;;;;5013788;28;20030;-74
2021/11/03 06:32:24;;;;;;;10.77;3.10;;;11.80;96.20;;;;;;5013897;28;20521;-74
2021/11/03 06:34:49;;;;;;;8.95;3.40;;;11.80;96.30;;;;;;5013882;28;20100;-75
2021/11/03 06:37:15;;;;;;;11.75;3.35;;;11.80;96.50;;;;;;5013774;28;20029;-71
2021/11/03 06:39:41;;;;;;;14.88;3.15;;;11.80;96.60;;;;;;5013770;28;20029;-75
2021/11/03 06:42:06;;;;;;;9.70;3.17;;;11.80;96.70;;;;;;5013662;28;20026;-71
2021/11/03 06:44:32;;;;;;;11.32;3.50;;;11.90;96.70;;;;;;5014029;28;20025;-74
2021/11/03 06:46:58;;;;;;;11.82;2.88;;;11.90;96.80;;;;;;5013839;28;20111;-74
2021/11/03 06:49:23;;;;;;;7.95;3.20;;;11.90;96.90;;;;;;5013430;28;20498;-73
2021/11/03 06:51:49;;;;;;;11.98;3.50;;;11.90;97.10;;;;;;5013662;28;20115;-76
2021/11/03 06:54:17;;;;;;;7.88;2.88;;;11.90;97.20;;;;;;5012308;28;20022;-74
2021/11/03 06:56:43;;;;;;;9.38;2.90;;;12.00;97.30;;;;;;5013475;28;20033;-73
2021/11/03 06:59:08;;;;;;;14.70;3.78;;;12.00;97.30;;;;;;5013661;28;20030;-73
2021/11/03 07:01:35;;;;;;;13.57;3.88;;;12.00;97.40;;;;;;5013653;28;20034;-75
2021/11/03 07:04:01;;;;;;;11.00;3.42;;;12.00;97.40;;;;;;5013205;28;20538;-74
2021/11/03 07:06:27;;;;;;;10.32;3.40;;;12.10;97.50;;;;;;5013514;28;20038;-74
2021/11/03 07:08:54;;;;;;;10.90;3.72;;;12.10;97.70;;;;;;5013323;28;20488;-73
2021/11/03 07:11:22;;;;;;;10.25;3.40;;;12.10;97.70;;;;;;5013471;28;20036;-70
2021/11/03 07:13:47;;;;;;;12.45;2.97;;;12.20;97.50;;;;;;5013216;28;20022;-70
2021/11/03 07:16:13;;;;;;;11.73;2.95;;;12.20;97.50;;;;;;5013112;28;20069;-70
2021/11/03 07:18:39;;;;;;;10.55;3.20;;;12.20;97.60;;;;;;5012358;28;20062;-70
2021/11/03 07:21:05;;;;;;;13.45;3.22;;;12.30;97.50;;;;;;5000561;28;20065;-72
2021/11/03 07:23:31;;;;;;;13.93;3.20;;;12.30;97.30;;;;;;4993691;28;20033;-72
2021/11/03 07:25:57;;;;;;;9.43;2.65;;;12.30;97.40;;;;;;4993123;28;20387;-78
2021/11/03 07:28:24;;;;;;;13.52;3.25;;;12.30;97.10;;;;;;4993271;28;20046;-80
2021/11/03 07:30:51;;;;;;;14.32;3.20;;;12.40;97.90;;;;;;4993897;28;20027;-74
2021/11/03 07:33:17;;;;;;;16.70;3.97;;;12.50;97.60;;;;;;4992347;28;20034;-72
2021/11/03 07:35:43;;;;;;;15.43;3.30;;;12.50;95.50;;;;;;4992070;28;20432;-72
2021/11/03 07:38:10;;;;;;;16.17;3.63;;;12.60;97.20;;;;;;4993466;28;20031;-72
2021/11/03 07:40:46;;;;;;;11.43;3.55;;;12.60;95.50;;;;;;4996000;28;20057;-72
2021/11/03 07:43:14;;;;;;;13.20;2.88;;;12.60;97.10;;;;;;4997536;28;20023;-72
2021/11/03 07:45:41;;;;;;;13.85;3.17;;;12.60;91.20;;;;;;4997413;28;20027;-71
2021/11/03 07:48:08;;;;;;;12.43;4.30;;;12.70;91.10;;;;;;4996587;28;20041;-74
2021/11/03 07:50:41;;;;;;;8.93;3.00;;;12.70;91.90;;;;;;4996026;28;20137;-72
2021/11/03 07:53:07;;;;;;;9.02;2.78;;;12.80;92.20;;;;;;5011769;28;20041;-76
2021/11/03 07:55:34;;;;;;;8.60;3.83;;;;;;;;;;4999507;28;20038;-77
2021/11/03 07:57:59;;;;;;;13.68;3.88;;;12.80;99.90;;;;;;5035730;28;20061;-75
2021/11/03 08:00:29;;;;;;;12.27;3.45;;;12.90;91.90;;;;;;5035152;28;20064;-75
2021/11/03 08:02:55;;;;;;;16.73;4.28;;;12.90;90.20;;;;;;5022277;28;20037;-72
2021/11/03 08:05:22;;;;;;;10.75;3.58;;;;;;;;;;5026560;28;20046;-76
2021/11/03 08:07:48;;;;;;;13.98;3.63;;;13.10;99.90;;;;;;5036152;28;20033;-72
2021/11/03 08:10:16;;;;;;;18.73;3.20;;;13.20;94.10;;;;;;5035982;28;20032;-69
2021/11/03 08:12:43;;;;;;;13.70;3.42;;;13.10;90.50;;;;;;5035076;28;20493;-72
2021/11/03 08:15:10;;;;;;;13.98;2.67;;;13.30;91.30;;;;;;5036627;28;20481;-80
2021/11/03 08:17:37;;;;;;;17.48;3.38;;;13.40;96.30;;;;;;5036112;28;20060;-80
2021/11/03 08:20:05;;;;;;;20.88;2.88;;;13.30;90.20;;;;;;5036494;28;20025;-81
2021/11/03 08:22:33;;;;;;;14.95;2.92;;;13.40;91.70;;;;;;5036191;28;20489;-73
2021/11/03 08:24:59;;;;;;;11.75;2.63;;;13.30;90.00;;;;;;5035808;28;20486;-74
2021/11/03 08:27:25;;;;;;;16.58;3.03;;;13.40;89.70;;;;;;5035763;28;20033;-74
2021/11/03 08:29:52;;;;;;;13.98;2.95;;;13.40;89.90;;;;;;5035274;28;20096;-73
2021/11/03 08:32:26;;;;;;;16.02;2.67;;;13.50;89.90;;;;;;5035973;28;20029;-73
2021/11/03 08:34:53;;;;;;;14.60;2.90;;;13.50;89.80;;;;;;5036028;28;20052;-74
2021/11/03 08:37:24;;;;;;;15.68;3.83;;;13.60;90.10;;;;;;5035715;28;20027;-77
2021/11/03 08:39:53;;;;;;;15.35;3.70;;;13.80;92.90;;;;;;5035301;28;20029;-77
2021/11/03 08:42:20;;;;;;;15.25;3.22;;;13.80;92.70;;;;;;5035894;28;20029;-75
2021/11/03 08:44:47;;;;;;;17.20;3.20;;;13.70;90.30;;;;;;5034443;28;20036;-72
2021/11/03 08:47:13;;;;;;;13.13;2.67;;;14.00;93.40;;;;;;5035465;28;20112;-72
2021/11/03 08:49:40;;;;;;;16.83;3.17;;;14.10;97.40;;;;;;5035161;28;20104;-73
2021/11/03 08:52:06;;;;;;;14.27;2.58;;;;;;;;;;5035250;28;20478;-73
2021/11/03 08:54:34;;;;;;;14.48;2.75;;;14.20;89.20;;;;;;5035765;28;20486;-73
2021/11/03 08:57:00;;;;;;;10.95;3.28;;;14.30;89.10;;;;;;5035288;28;20482;-72
2021/11/03 08:59:27;;;;;;;10.18;2.42;;;14.40;89.50;;;;;;5035447;28;20079;-72
2021/11/03 09:01:53;;;;;;;10.90;2.08;;;14.50;89.20;;;;;;5034103;28;20108;-73
2021/11/03 09:04:20;;;;;;;12.40;2.35;;;14.60;89.10;;;;;;5035172;28;20045;-73
2021/11/03 09:06:45;;;;;;;20.35;2.53;;;14.70;88.80;;;;;;5035044;28;20409;-73
2021/11/03 09:09:11;;;;;;;17.40;2.67;;;14.90;93.60;;;;;;5035231;28;20030;-73
2021/11/03 09:11:37;;;;;;;18.85;3.38;;;15.00;89.60;;;;;;5035157;28;20513;-72
2021/11/03 09:14:04;;;;;;;24.77;2.65;;;14.90;87.70;;;;;;5035221;28;20025;-73
2021/11/03 09:16:30;;;;;;;30.60;3.00;;;15.00;87.70;;;;;;5035333;28;20237;-73
2021/11/03 09:18:55;;;;;;;19.13;2.30;;;15.00;87.00;;;;;;5034813;28;20017;-72
2021/11/03 09:21:22;;;;;;;12.23;1.60;;;15.00;87.20;;;;;;5034984;28;20093;-72
2021/11/03 09:23:48;;;;;;;15.38;2.25;;;15.00;87.50;;;;;;5035007;28;20069;-72
2021/11/03 09:26:16;;;;;;;13.07;2.17;;;15.10;87.30;;;;;;5034869;28;20021;-73
2021/11/03 09:28:42;;;;;;;11.98;2.10;;;15.00;86.90;;;;;;5034823;28;20022;-72
2021/11/03 09:31:09;;;;;;;20.88;2.55;;;15.00;86.30;;;;;;5034711;28;20362;-77
2021/11/03 09:33:36;;;;;;;16.27;2.90;;;15.00;85.90;;;;;;5034974;28;20025;-78
2021/11/03 09:36:04;;;;;;;14.60;2.30;;;15.10;85.70;;;;;;5034915;28;20048;-76
2021/11/03 09:38:32;;;;;;;13.40;2.38;;;15.00;85.70;;;;;;5034729;28;20100;-77
2021/11/03 09:41:20;;;;;;;12.27;2.45;;;15.10;87.40;;;;;;5034759;28;20416;-74
2021/11/03 09:43:54;;;;;;;10.35;2.05;;;15.10;86.70;;;;;;5027913;28;20065;-76
2021/11/03 09:46:35;;;;;;;9.90;2.00;;;15.10;86.20;;;;;;5034629;28;20128;-75
2021/11/03 09:49:04;;;;;;;11.98;2.28;;;15.10;86.30;;;;;;5034571;28;20519;-76
2021/11/03 09:51:31;;;;;;;16.83;2.53;;;15.10;85.80;;;;;;5034136;28;20033;-75
2021/11/03 09:54:05;;;;;;;11.80;2.53;;;15.20;85.70;;;;;;5033759;28;20034;-77
2021/11/03 09:56:43;;;;;;;16.05;2.65;;;15.30;87.30;;;;;;5034295;28;20033;-76
2021/11/03 09:59:56;;;;;;;12.65;2.40;;;15.30;87.10;;;;;;5034032;28;20026;-77
2021/11/03 10:02:52;;;;;;;17.13;2.20;;;15.20;86.00;;;;;;4997689;28;20048;-74
2021/11/03 10:05:26;;;;;;;25.30;2.92;;;15.30;86.10;;;;;;5013364;28;20285;-75
2021/11/03 10:08:03;;;;;;;13.73;2.55;;;15.20;86.00;;;;;;5013161;28;20076;-73
2021/11/03 10:10:38;;;;;;;14.90;2.90;;;15.20;85.90;;;;;;5014070;28;20069;-74
2021/11/03 10:13:35;;;;;;;16.70;3.72;;;15.20;86.20;;;;;;5013659;28;20026;-75
2021/11/03 10:16:21;;;;;;;11.48;3.50;;;15.20;86.20;;;;;;5012247;28;20034;-76
2021/11/03 10:18:52;;;;;;;13.75;3.38;;;15.20;86.30;;;;;;5013490;28;20185;-77
2021/11/03 10:21:33;;;;;;;15.88;2.78;;;15.20;86.90;;;;;;5014016;28;20034;-75
2021/11/03 10:24:04;;;;;;;14.50;2.17;;;15.20;86.90;;;;;;5014229;28;20418;-74
2021/11/03 10:26:44;;;;;;;12.63;2.28;;;15.20;86.70;;;;;;5014054;28;20156;-75
2021/11/03 10:29:16;;;;;;;14.00;2.58;;;15.20;86.80;;;;;;5013731;28;20029;-73
2021/11/03 10:31:49;;;;;;;10.18;2.42;;;15.20;86.70;;;;;;5014165;28;20120;-74
2021/11/03 10:34:17;;;;;;;15.93;2.40;;;15.20;86.90;;;;;;5014097;28;20489;-76
2021/11/03 10:36:45;;;;;;;9.68;1.98;;;15.20;86.70;;;;;;5012017;28;20363;-76
2021/11/03 10:39:18;;;;;;;14.90;2.70;;;15.20;86.70;;;;;;5012813;28;20029;-73
2021/11/03 10:41:58;;;;;;;14.80;3.10;;;15.20;86.50;;;;;;5010495;28;20352;-73
2021/11/03 10:44:29;;;;;;;14.30;3.08;;;15.20;87.00;;;;;;5012414;28;20033;-75
2021/11/03 10:47:19;;;;;;;11.30;2.47;;;15.20;87.60;;;;;;5013315;28;20037;-76
2021/11/03 10:50:03;;;;;;;12.52;2.50;;;15.20;87.90;;;;;;5013157;28;20359;-76
2021/11/03 10:52:53;;;;;;;11.57;2.42;;;15.20;88.10;;;;;;5012289;28;20021;-76
2021/11/03 10:55:36;;;;;;;11.02;2.67;;;15.20;88.10;;;;;;5012294;28;20022;-76
2021/11/03 10:58:11;;;;;;;12.85;3.08;;;15.10;88.20;;;;;;5013741;28;20056;-75
2021/11/03 11:00:53;;;;;;;14.93;4.70;;;15.10;88.60;;;;;;5013019;28;20022;-76
2021/11/03 11:03:23;;;;;;;26.25;8.25;;;15.10;88.80;;;;;;5011942;28;20087;-77
2021/11/03 11:05:54;;;;;;;20.55;6.47;;;15.10;89.20;;;;;;5012533;28;20056;-76
2021/11/03 11:08:27;;;;;;;22.23;7.50;;;15.00;90.00;;;;;;5011956;28;20044;-76
2021/11/03 11:11:08;;;;;;;22.85;7.75;;;15.00;90.50;;;;;;5013437;28;20025;-77
2021/11/03 11:13:41;;;;;;;22.10;8.45;;;15.00;90.90;;;;;;5012528;28;20113;-77
2021/11/03 11:16:12;;;;;;;21.23;8.30;;;15.00;90.80;;;;;;5012910;28;20041;-77
2021/11/03 11:18:40;;;;;;;21.52;7.50;;;15.00;90.90;;;;;;5012355;28;20033;-78
2021/11/03 11:21:47;;;;;;;22.38;7.07;;;15.00;90.90;;;;;;5011316;28;20032;-77
2021/11/03 11:24:33;;;;;;;19.77;5.70;;;15.00;91.00;;;;;;4970519;28;20031;-78
2021/11/03 11:27:05;;;;;;;20.88;5.90;;;15.00;91.40;;;;;;5010802;28;20046;-80
2021/11/03 11:30:01;;;;;;;15.88;5.60;;;15.00;91.30;;;;;;5013320;28;20112;-79
2021/11/03 11:32:43;;;;;;;18.83;5.70;;;15.00;91.60;;;;;;5011631;28;20029;-79
2021/11/03 11:35:08;;;;;;;24.45;6.38;;;15.10;92.10;;;;;;5011549;28;20098;-81
2021/11/03 11:37:57;;;;;;;21.75;5.50;;;15.00;92.10;;;;;;5013236;28;20034;-80
2021/11/03 11:40:29;;;;;;;17.30;6.55;;;14.90;91.20;;;;;;5013206;28;20022;-81
2021/11/03 11:43:24;;;;;;;12.93;4.78;;;14.90;91.10;;;;;;5012999;28;20041;-76
2021/11/03 11:45:50;;;;;;;20.30;5.30;;;15.00;91.50;;;;;;5012695;28;20022;-76
2021/11/03 11:48:30;;;;;;;10.85;4.20;;;15.00;91.30;;;;;;5012921;28;20091;-76
2021/11/03 11:51:05;;;;;;;17.25;4.88;;;15.00;91.40;;;;;;5013045;28;20049;-75
2021/11/03 11:53:52;;;;;;;19.52;5.30;;;15.00;91.30;;;;;;5013302;28;20080;-80
2021/11/03 11:56:21;;;;;;;20.27;4.90;;;15.00;91.40;;;;;;5012939;28;20033;-81
2021/11/03 11:59:01;;;;;;;17.42;4.97;;;15.00;91.60;;;;;;5013104;28;20398;-79
2021/11/03 12:01:48;;;;;;;16.08;4.53;;;15.10;91.50;;;;;;5011931;28;20030;-80
2021/11/03 12:04:20;;;;;;;11.13;4.68;;;15.20;97.40;;;;;;5006246;28;20046;-82
2021/11/03 12:07:06;;;;;;;18.57;4.77;;;15.10;91.40;;;;;;5013433;28;20033;-82
2021/11/03 12:09:34;;;;;;;23.45;5.45;;;15.20;94.30;;;;;;5012583;28;20273;-75
2021/11/03 12:12:06;;;;;;;16.20;4.03;;;15.20;91.30;;;;;;5012699;28;20026;-75
2021/11/03 12:14:51;;;;;;;17.37;3.03;;;15.20;91.40;;;;;;5013149;28;20100;-75
2021/11/03 12:17:34;;;;;;;18.85;3.60;;;15.40;93.40;;;;;;5012733;28;20022;-75
2021/11/03 12:20:01;;;;;;;;;;;15.40;96.10;;;;;;5013627;28;20037;-75
2021/11/03 12:22:29;;;;;;;13.45;3.17;;;15.30;91.00;;;;;;5012786;28;19909;-78
2021/11/03 12:25:17;;;;;;;10.20;2.17;;;15.30;91.10;;;;;;5012129;28;20478;-78
2021/11/03 12:27:47;;;;;;;11.27;2.65;;;15.30;90.80;;;;;;5008303;28;20042;-78
2021/11/03 12:30:15;;;;;;;11.60;2.53;;;15.20;91.00;;;;;;5016116;28;20026;-81
2021/11/03 12:32:43;;;;;;;11.10;2.25;;;15.20;91.00;;;;;;5012726;28;20040;-75
2021/11/03 12:35:18;;;;;;;8.75;2.38;;;15.20;90.90;;;;;;5011804;28;20021;-73
2021/11/03 12:37:49;;;;;;;11.48;2.38;;;15.10;90.90;;;;;;5014510;28;20026;-78
2021/11/03 12:40:44;;;;;;;10.30;2.25;;;15.10;91.20;;;;;;5016096;28;20498;-78
2021/11/03 12:43:21;;;;;;;11.20;3.05;;;15.10;90.90;;;;;;5015451;28;20034;-79
2021/11/03 12:45:59;;;;;;;9.38;2.60;;;15.10;90.90;;;;;;5015339;28;20364;-79
2021/11/03 12:48:35;;;;;;;9.88;2.20;;;15.10;90.90;;;;;;5014400;28;20111;-80
2021/11/03 12:51:01;;;;;;;10.95;2.33;;;15.10;91.00;;;;;;5016231;28;20026;-79
2021/11/03 12:53:31;;;;;;;13.93;3.25;;;15.00;91.10;;;;;;5015873;28;20029;-77
2021/11/03 12:56:12;;;;;;;16.67;4.60;;;15.00;91.20;;;;;;5015626;28;20536;-79
2021/11/03 12:58:57;;;;;;;14.07;4.53;;;15.00;91.50;;;;;;5015260;28;20426;-79
2021/11/03 13:01:24;;;;;;;14.60;4.05;;;15.10;91.40;;;;;;5015168;28;20499;-80
2021/11/03 13:03:55;;;;;;;16.77;4.82;;;15.00;91.50;;;;;;5015119;28;20113;-79
2021/11/03 13:06:25;;;;;;;13.70;3.60;;;15.00;91.60;;;;;;5013912;28;20041;-80
2021/11/03 13:08:52;;;;;;;12.25;3.65;;;15.00;91.50;;;;;;5015089;28;20475;-79
2021/11/03 13:11:21;;;;;;;12.77;4.00;;;15.00;91.50;;;;;;5015621;28;20378;-78
2021/11/03 13:13:59;;;;;;;15.80;4.38;;;15.00;91.50;;;;;;5015206;28;20520;-79